sensor_id;sensor_type;location;lat;lon;timestamp;P1;durP1;ratioP1;P2;durP2;ratioP2
72621;SDS011;60665;53.506;9.582;2022-10-04T00:00:57;5.13;;;1.20;;
72621;SDS011;60665;53.506;9.582;2022-10-04T00:03:27;3.75;;;1.08;;
72621;SDS011;60665;53.506;9.582;2022-10-04T00:06:05;6.18;;;1.25;;
72621;SDS011;60665;53.506;9.582;2022-10-04T00:08:40;7.70;;;1.73;;
72621;SDS011;60665;53.506;9.582;2022-10-04T00:11:13;8.05;;;1.60;;
72621;SDS011;60665;53.506;9.582;2022-10-04T00:13:46;10.43;;;1.30;;
72621;SDS011;60665;53.506;9.582;2022-10-04T00:16:22;6.15;;;1.40;;
72621;SDS011;60665;53.506;9.582;2022-10-04T00:21:39;8.57;;;1.90;;
72621;SDS011;60665;53.506;9.582;2022-10-04T00:24:26;7.35;;;1.80;;
72621;SDS011;60665;53.506;9.582;2022-10-04T00:27:18;3.83;;;1.23;;
72621;SDS011;60665;53.506;9.582;2022-10-04T00:40:39;3.97;;;1.10;;
72621;SDS011;60665;53.506;9.582;2022-10-04T00:43:07;7.95;;;1.27;;
72621;SDS011;60665;53.506;9.582;2022-10-04T00:45:39;5.85;;;1.63;;
72621;SDS011;60665;53.506;9.582;2022-10-04T00:51:07;6.82;;;1.48;;
72621;SDS011;60665;53.506;9.582;2022-10-04T00:53:40;5.78;;;1.10;;
72621;SDS011;60665;53.506;9.582;2022-10-04T00:56:46;5.65;;;1.20;;
72621;SDS011;60665;53.506;9.582;2022-10-04T00:59:15;6.95;;;1.75;;
72621;SDS011;60665;53.506;9.582;2022-10-04T01:01:42;8.38;;;1.50;;
72621;SDS011;60665;53.506;9.582;2022-10-04T01:04:14;7.47;;;1.60;;
72621;SDS011;60665;53.506;9.582;2022-10-04T01:06:48;8.20;;;1.77;;
72621;SDS011;60665;53.506;9.582;2022-10-04T01:09:13;6.00;;;1.40;;
72621;SDS011;60665;53.506;9.582;2022-10-04T01:11:41;6.72;;;1.40;;
72621;SDS011;60665;53.506;9.582;2022-10-04T01:14:26;7.10;;;1.40;;
72621;SDS011;60665;53.506;9.582;2022-10-04T01:16:56;7.00;;;1.40;;
72621;SDS011;60665;53.506;9.582;2022-10-04T01:21:55;3.93;;;1.33;;
72621;SDS011;60665;53.506;9.582;2022-10-04T01:24:23;6.50;;;1.88;;
72621;SDS011;60665;53.506;9.582;2022-10-04T01:26:49;6.43;;;1.52;;
72621;SDS011;60665;53.506;9.582;2022-10-04T01:29:22;6.82;;;1.55;;
72621;SDS011;60665;53.506;9.582;2022-10-04T01:31:50;5.30;;;1.42;;
72621;SDS011;60665;53.506;9.582;2022-10-04T01:34:18;9.63;;;1.52;;
72621;SDS011;60665;53.506;9.582;2022-10-04T01:36:45;4.53;;;1.30;;
72621;SDS011;60665;53.506;9.582;2022-10-04T01:39:11;10.25;;;1.58;;
72621;SDS011;60665;53.506;9.582;2022-10-04T01:45:06;6.93;;;1.50;;
72621;SDS011;60665;53.506;9.582;2022-10-04T01:50:07;8.13;;;2.10;;
72621;SDS011;60665;53.506;9.582;2022-10-04T01:52:41;9.15;;;1.73;;
72621;SDS011;60665;53.506;9.582;2022-10-04T01:55:13;6.55;;;1.60;;
72621;SDS011;60665;53.506;9.582;2022-10-04T01:57:42;8.63;;;1.50;;
72621;SDS011;60665;53.506;9.582;2022-10-04T02:00:12;4.93;;;1.40;;
72621;SDS011;60665;53.506;9.582;2022-10-04T02:05:32;8.07;;;1.70;;
72621;SDS011;60665;53.506;9.582;2022-10-04T02:08:06;6.88;;;1.67;;
72621;SDS011;60665;53.506;9.582;2022-10-04T02:10:34;6.90;;;1.80;;
72621;SDS011;60665;53.506;9.582;2022-10-04T02:13:03;8.70;;;1.92;;
72621;SDS011;60665;53.506;9.582;2022-10-04T02:15:32;6.47;;;1.48;;
72621;SDS011;60665;53.506;9.582;2022-10-04T02:17:59;7.93;;;2.25;;
72621;SDS011;60665;53.506;9.582;2022-10-04T02:20:26;7.70;;;1.38;;
72621;SDS011;60665;53.506;9.582;2022-10-04T02:22:56;5.15;;;1.30;;
72621;SDS011;60665;53.506;9.582;2022-10-04T02:25:27;6.88;;;1.48;;
72621;SDS011;60665;53.506;9.582;2022-10-04T02:27:53;5.03;;;1.30;;
72621;SDS011;60665;53.506;9.582;2022-10-04T02:30:19;6.22;;;1.67;;
72621;SDS011;60665;53.506;9.582;2022-10-04T02:32:45;3.78;;;1.27;;
72621;SDS011;60665;53.506;9.582;2022-10-04T02:35:31;5.80;;;1.23;;
72621;SDS011;60665;53.506;9.582;2022-10-04T02:38:11;5.28;;;1.50;;
72621;SDS011;60665;53.506;9.582;2022-10-04T02:40:52;7.95;;;1.50;;
72621;SDS011;60665;53.506;9.582;2022-10-04T02:43:32;5.22;;;1.63;;
72621;SDS011;60665;53.506;9.582;2022-10-04T02:48:46;7.57;;;1.55;;
72621;SDS011;60665;53.506;9.582;2022-10-04T02:59:19;6.75;;;1.60;;
72621;SDS011;60665;53.506;9.582;2022-10-04T03:06:39;6.97;;;1.30;;
72621;SDS011;60665;53.506;9.582;2022-10-04T03:09:06;6.07;;;1.75;;
72621;SDS011;60665;53.506;9.582;2022-10-04T03:11:36;6.50;;;1.30;;
72621;SDS011;60665;53.506;9.582;2022-10-04T03:14:03;4.90;;;1.65;;
72621;SDS011;60665;53.506;9.582;2022-10-04T03:16:35;6.10;;;1.40;;
72621;SDS011;60665;53.506;9.582;2022-10-04T03:19:02;8.15;;;1.10;;
72621;SDS011;60665;53.506;9.582;2022-10-04T03:21:27;6.20;;;2.25;;
72621;SDS011;60665;53.506;9.582;2022-10-04T03:23:55;5.00;;;0.90;;
72621;SDS011;60665;53.506;9.582;2022-10-04T03:29:10;5.18;;;1.48;;
72621;SDS011;60665;53.506;9.582;2022-10-04T03:31:38;5.68;;;1.48;;
72621;SDS011;60665;53.506;9.582;2022-10-04T03:34:05;4.00;;;1.67;;
72621;SDS011;60665;53.506;9.582;2022-10-04T03:36:38;10.45;;;2.22;;
72621;SDS011;60665;53.506;9.582;2022-10-04T03:39:04;6.47;;;2.05;;
72621;SDS011;60665;53.506;9.582;2022-10-04T03:41:36;5.68;;;1.50;;
72621;SDS011;60665;53.506;9.582;2022-10-04T03:44:03;8.25;;;1.88;;
72621;SDS011;60665;53.506;9.582;2022-10-04T03:46:29;4.55;;;1.30;;
72621;SDS011;60665;53.506;9.582;2022-10-04T03:48:54;8.38;;;2.33;;
72621;SDS011;60665;53.506;9.582;2022-10-04T03:51:22;6.82;;;1.73;;
72621;SDS011;60665;53.506;9.582;2022-10-04T03:53:57;7.45;;;1.83;;
72621;SDS011;60665;53.506;9.582;2022-10-04T03:58:56;7.43;;;1.50;;
72621;SDS011;60665;53.506;9.582;2022-10-04T04:01:42;6.18;;;1.58;;
72621;SDS011;60665;53.506;9.582;2022-10-04T04:09:18;10.13;;;1.60;;
72621;SDS011;60665;53.506;9.582;2022-10-04T04:11:47;9.57;;;1.70;;
72621;SDS011;60665;53.506;9.582;2022-10-04T04:14:15;4.72;;;1.60;;
72621;SDS011;60665;53.506;9.582;2022-10-04T04:16:45;6.35;;;1.52;;
72621;SDS011;60665;53.506;9.582;2022-10-04T04:19:12;8.73;;;1.90;;
72621;SDS011;60665;53.506;9.582;2022-10-04T04:21:40;9.43;;;2.05;;
72621;SDS011;60665;53.506;9.582;2022-10-04T04:24:12;5.97;;;1.95;;
72621;SDS011;60665;53.506;9.582;2022-10-04T04:26:42;8.02;;;1.92;;
72621;SDS011;60665;53.506;9.582;2022-10-04T04:31:49;4.93;;;1.70;;
72621;SDS011;60665;53.506;9.582;2022-10-04T04:34:21;5.20;;;1.85;;
72621;SDS011;60665;53.506;9.582;2022-10-04T04:36:49;7.10;;;1.80;;
72621;SDS011;60665;53.506;9.582;2022-10-04T04:39:17;7.03;;;1.85;;
72621;SDS011;60665;53.506;9.582;2022-10-04T04:42:13;4.78;;;1.85;;
72621;SDS011;60665;53.506;9.582;2022-10-04T04:44:45;4.75;;;1.60;;
72621;SDS011;60665;53.506;9.582;2022-10-04T04:47:18;5.22;;;1.80;;
72621;SDS011;60665;53.506;9.582;2022-10-04T04:49:53;6.88;;;2.00;;
72621;SDS011;60665;53.506;9.582;2022-10-04T04:52:20;6.95;;;2.00;;
72621;SDS011;60665;53.506;9.582;2022-10-04T04:54:47;6.15;;;1.85;;
72621;SDS011;60665;53.506;9.582;2022-10-04T04:57:14;6.15;;;2.28;;
72621;SDS011;60665;53.506;9.582;2022-10-04T04:59:43;8.23;;;2.58;;
72621;SDS011;60665;53.506;9.582;2022-10-04T05:02:25;5.55;;;1.88;;
72621;SDS011;60665;53.506;9.582;2022-10-04T05:07:41;7.50;;;2.45;;
72621;SDS011;60665;53.506;9.582;2022-10-04T05:12:51;6.65;;;2.72;;
72621;SDS011;60665;53.506;9.582;2022-10-04T05:15:17;7.50;;;2.67;;
72621;SDS011;60665;53.506;9.582;2022-10-04T05:17:42;7.32;;;2.65;;
72621;SDS011;60665;53.506;9.582;2022-10-04T05:20:09;6.38;;;2.85;;
72621;SDS011;60665;53.506;9.582;2022-10-04T05:22:36;11.90;;;3.38;;
72621;SDS011;60665;53.506;9.582;2022-10-04T05:25:05;9.77;;;3.45;;
72621;SDS011;60665;53.506;9.582;2022-10-04T05:27:37;9.77;;;3.53;;
72621;SDS011;60665;53.506;9.582;2022-10-04T05:30:08;7.55;;;3.63;;
72621;SDS011;60665;53.506;9.582;2022-10-04T05:43:48;8.73;;;3.30;;
72621;SDS011;60665;53.506;9.582;2022-10-04T05:46:21;8.27;;;3.08;;
72621;SDS011;60665;53.506;9.582;2022-10-04T05:48:52;9.13;;;3.83;;
72621;SDS011;60665;53.506;9.582;2022-10-04T05:51:26;5.45;;;3.08;;
72621;SDS011;60665;53.506;9.582;2022-10-04T05:53:53;7.03;;;2.78;;
72621;SDS011;60665;53.506;9.582;2022-10-04T05:59:35;8.15;;;3.58;;
72621;SDS011;60665;53.506;9.582;2022-10-04T06:02:30;7.95;;;3.60;;
72621;SDS011;60665;53.506;9.582;2022-10-04T06:05:24;6.72;;;3.35;;
72621;SDS011;60665;53.506;9.582;2022-10-04T06:07:54;7.00;;;2.63;;
72621;SDS011;60665;53.506;9.582;2022-10-04T06:16:06;11.02;;;3.92;;
72621;SDS011;60665;53.506;9.582;2022-10-04T06:21:29;7.47;;;3.65;;
72621;SDS011;60665;53.506;9.582;2022-10-04T06:24:04;9.00;;;3.78;;
72621;SDS011;60665;53.506;9.582;2022-10-04T06:26:42;10.75;;;3.80;;
72621;SDS011;60665;53.506;9.582;2022-10-04T06:29:10;13.05;;;4.18;;
72621;SDS011;60665;53.506;9.582;2022-10-04T06:56:06;11.45;;;4.60;;
72621;SDS011;60665;53.506;9.582;2022-10-04T07:01:21;9.30;;;4.15;;
72621;SDS011;60665;53.506;9.582;2022-10-04T07:06:35;12.23;;;4.60;;
72621;SDS011;60665;53.506;9.582;2022-10-04T07:09:03;14.88;;;4.63;;
72621;SDS011;60665;53.506;9.582;2022-10-04T07:11:35;13.00;;;4.47;;
72621;SDS011;60665;53.506;9.582;2022-10-04T07:16:47;11.80;;;4.07;;
72621;SDS011;60665;53.506;9.582;2022-10-04T07:19:30;13.05;;;4.65;;
72621;SDS011;60665;53.506;9.582;2022-10-04T07:27:35;9.75;;;3.88;;
72621;SDS011;60665;53.506;9.582;2022-10-04T07:30:44;7.97;;;3.70;;
72621;SDS011;60665;53.506;9.582;2022-10-04T07:33:14;10.95;;;4.10;;
72621;SDS011;60665;53.506;9.582;2022-10-04T07:35:52;12.27;;;3.90;;
72621;SDS011;60665;53.506;9.582;2022-10-04T07:38:25;11.48;;;4.40;;
72621;SDS011;60665;53.506;9.582;2022-10-04T07:43:27;11.55;;;4.07;;
72621;SDS011;60665;53.506;9.582;2022-10-04T07:46:36;10.75;;;3.85;;
72621;SDS011;60665;53.506;9.582;2022-10-04T07:49:01;9.65;;;4.57;;
72621;SDS011;60665;53.506;9.582;2022-10-04T07:51:42;10.98;;;4.60;;
72621;SDS011;60665;53.506;9.582;2022-10-04T07:54:18;10.93;;;5.63;;
72621;SDS011;60665;53.506;9.582;2022-10-04T07:56:58;10.32;;;4.30;;
72621;SDS011;60665;53.506;9.582;2022-10-04T08:08:22;14.75;;;4.25;;
72621;SDS011;60665;53.506;9.582;2022-10-04T08:10:30;12.20;;;4.25;;
72621;SDS011;60665;53.506;9.582;2022-10-04T08:15:43;12.98;;;4.75;;
72621;SDS011;60665;53.506;9.582;2022-10-04T08:18:20;14.35;;;5.07;;
72621;SDS011;60665;53.506;9.582;2022-10-04T08:21:19;10.65;;;4.05;;
72621;SDS011;60665;53.506;9.582;2022-10-04T08:57:11;11.20;;;4.00;;
72621;SDS011;60665;53.506;9.582;2022-10-04T09:00:07;16.42;;;3.92;;
72621;SDS011;60665;53.506;9.582;2022-10-04T09:18:49;12.45;;;3.08;;
72621;SDS011;60665;53.506;9.582;2022-10-04T09:24:08;11.02;;;3.17;;
72621;SDS011;60665;53.506;9.582;2022-10-04T09:34:48;10.85;;;3.03;;
72621;SDS011;60665;53.506;9.582;2022-10-04T09:43:34;15.00;;;3.83;;
72621;SDS011;60665;53.506;9.582;2022-10-04T09:51:20;13.45;;;3.47;;
72621;SDS011;60665;53.506;9.582;2022-10-04T10:11:00;10.63;;;3.05;;
72621;SDS011;60665;53.506;9.582;2022-10-04T10:16:55;8.25;;;3.30;;
72621;SDS011;60665;53.506;9.582;2022-10-04T10:30:23;10.75;;;2.50;;
72621;SDS011;60665;53.506;9.582;2022-10-04T10:38:37;10.13;;;2.85;;
72621;SDS011;60665;53.506;9.582;2022-10-04T10:52:50;9.60;;;2.20;;
72621;SDS011;60665;53.506;9.582;2022-10-04T10:58:11;12.70;;;2.47;;
72621;SDS011;60665;53.506;9.582;2022-10-04T11:01:14;7.93;;;2.08;;
72621;SDS011;60665;53.506;9.582;2022-10-04T11:11:43;9.48;;;2.10;;
72621;SDS011;60665;53.506;9.582;2022-10-04T11:25:32;9.35;;;2.75;;
72621;SDS011;60665;53.506;9.582;2022-10-04T11:50:17;10.00;;;2.80;;
72621;SDS011;60665;53.506;9.582;2022-10-04T11:58:30;9.07;;;2.25;;
72621;SDS011;60665;53.506;9.582;2022-10-04T12:01:21;9.10;;;2.28;;
72621;SDS011;60665;53.506;9.582;2022-10-04T12:07:24;9.55;;;2.60;;
72621;SDS011;60665;53.506;9.582;2022-10-04T12:26:19;6.57;;;1.92;;
72621;SDS011;60665;53.506;9.582;2022-10-04T12:29:16;5.35;;;1.77;;
72621;SDS011;60665;53.506;9.582;2022-10-04T12:31:58;9.43;;;1.90;;
72621;SDS011;60665;53.506;9.582;2022-10-04T12:53:47;9.32;;;1.70;;
72621;SDS011;60665;53.506;9.582;2022-10-04T13:05:41;6.83;;;2.27;;
72621;SDS011;60665;53.506;9.582;2022-10-04T13:16:09;7.05;;;2.03;;
72621;SDS011;60665;53.506;9.582;2022-10-04T13:30:21;7.15;;;2.10;;
72621;SDS011;60665;53.506;9.582;2022-10-04T13:35:50;11.18;;;2.38;;
72621;SDS011;60665;53.506;9.582;2022-10-04T13:43:37;10.48;;;2.28;;
72621;SDS011;60665;53.506;9.582;2022-10-04T13:49:57;11.13;;;2.30;;
72621;SDS011;60665;53.506;9.582;2022-10-04T13:58:33;7.40;;;2.13;;
72621;SDS011;60665;53.506;9.582;2022-10-04T14:18:56;11.85;;;2.17;;
72621;SDS011;60665;53.506;9.582;2022-10-04T14:21:54;7.72;;;2.17;;
72621;SDS011;60665;53.506;9.582;2022-10-04T14:27:11;6.30;;;2.08;;
72621;SDS011;60665;53.506;9.582;2022-10-04T14:35:33;9.48;;;1.73;;
72621;SDS011;60665;53.506;9.582;2022-10-04T15:00:07;6.88;;;2.05;;
72621;SDS011;60665;53.506;9.582;2022-10-04T15:02:43;10.50;;;2.00;;
72621;SDS011;60665;53.506;9.582;2022-10-04T15:07:58;3.88;;;1.40;;
72621;SDS011;60665;53.506;9.582;2022-10-04T15:10:45;9.15;;;1.83;;
72621;SDS011;60665;53.506;9.582;2022-10-04T15:29:30;7.18;;;1.88;;
72621;SDS011;60665;53.506;9.582;2022-10-04T15:32:15;8.45;;;2.05;;
72621;SDS011;60665;53.506;9.582;2022-10-04T15:37:50;6.72;;;2.08;;
72621;SDS011;60665;53.506;9.582;2022-10-04T15:43:02;9.18;;;2.55;;
72621;SDS011;60665;53.506;9.582;2022-10-04T15:48:25;6.90;;;2.10;;
72621;SDS011;60665;53.506;9.582;2022-10-04T15:53:49;8.40;;;2.13;;
72621;SDS011;60665;53.506;9.582;2022-10-04T16:13:25;4.97;;;2.00;;
72621;SDS011;60665;53.506;9.582;2022-10-04T16:34:28;4.68;;;1.63;;
72621;SDS011;60665;53.506;9.582;2022-10-04T16:39:38;6.00;;;1.60;;
72621;SDS011;60665;53.506;9.582;2022-10-04T16:45:29;4.70;;;1.65;;
72621;SDS011;60665;53.506;9.582;2022-10-04T16:47:56;8.80;;;1.80;;
72621;SDS011;60665;53.506;9.582;2022-10-04T16:50:48;6.03;;;1.80;;
72621;SDS011;60665;53.506;9.582;2022-10-04T16:56:19;4.05;;;1.50;;
72621;SDS011;60665;53.506;9.582;2022-10-04T16:58:56;4.22;;;1.80;;
72621;SDS011;60665;53.506;9.582;2022-10-04T17:06:53;5.28;;;2.00;;
72621;SDS011;60665;53.506;9.582;2022-10-04T17:15:30;5.35;;;1.83;;
72621;SDS011;60665;53.506;9.582;2022-10-04T17:25:44;7.15;;;2.10;;
72621;SDS011;60665;53.506;9.582;2022-10-04T17:45:46;9.25;;;3.25;;
72621;SDS011;60665;53.506;9.582;2022-10-04T17:48:12;7.60;;;2.40;;
72621;SDS011;60665;53.506;9.582;2022-10-04T17:51:01;9.35;;;2.58;;
72621;SDS011;60665;53.506;9.582;2022-10-04T17:53:52;6.40;;;2.13;;
72621;SDS011;60665;53.506;9.582;2022-10-04T17:56:45;5.28;;;2.10;;
72621;SDS011;60665;53.506;9.582;2022-10-04T17:59:15;6.38;;;1.98;;
72621;SDS011;60665;53.506;9.582;2022-10-04T18:01:46;7.43;;;2.03;;
72621;SDS011;60665;53.506;9.582;2022-10-04T18:04:22;5.15;;;1.98;;
72621;SDS011;60665;53.506;9.582;2022-10-04T18:07:00;7.55;;;2.13;;
72621;SDS011;60665;53.506;9.582;2022-10-04T18:09:42;9.55;;;2.72;;
72621;SDS011;60665;53.506;9.582;2022-10-04T18:12:11;6.13;;;1.90;;
72621;SDS011;60665;53.506;9.582;2022-10-04T18:14:50;6.32;;;1.95;;
72621;SDS011;60665;53.506;9.582;2022-10-04T18:17:31;7.85;;;1.88;;
72621;SDS011;60665;53.506;9.582;2022-10-04T18:22:49;5.43;;;2.13;;
72621;SDS011;60665;53.506;9.582;2022-10-04T18:25:23;6.45;;;1.90;;
72621;SDS011;60665;53.506;9.582;2022-10-04T18:28:10;6.00;;;2.13;;
72621;SDS011;60665;53.506;9.582;2022-10-04T18:30:58;5.32;;;2.05;;
72621;SDS011;60665;53.506;9.582;2022-10-04T18:36:07;6.70;;;2.23;;
72621;SDS011;60665;53.506;9.582;2022-10-04T18:38:42;4.63;;;1.92;;
72621;SDS011;60665;53.506;9.582;2022-10-04T18:46:17;5.57;;;2.28;;
72621;SDS011;60665;53.506;9.582;2022-10-04T18:48:58;6.75;;;2.10;;
72621;SDS011;60665;53.506;9.582;2022-10-04T18:51:32;7.80;;;2.20;;
72621;SDS011;60665;53.506;9.582;2022-10-04T18:54:08;4.90;;;2.33;;
72621;SDS011;60665;53.506;9.582;2022-10-04T18:56:59;8.52;;;2.60;;
72621;SDS011;60665;53.506;9.582;2022-10-04T19:03:06;7.85;;;2.15;;
72621;SDS011;60665;53.506;9.582;2022-10-04T19:05:44;7.68;;;2.35;;
72621;SDS011;60665;53.506;9.582;2022-10-04T19:11:11;5.90;;;2.00;;
72621;SDS011;60665;53.506;9.582;2022-10-04T19:13:51;6.95;;;2.63;;
72621;SDS011;60665;53.506;9.582;2022-10-04T19:16:25;5.55;;;2.28;;
72621;SDS011;60665;53.506;9.582;2022-10-04T19:27:05;8.70;;;3.00;;
72621;SDS011;60665;53.506;9.582;2022-10-04T19:32:27;7.60;;;2.63;;
72621;SDS011;60665;53.506;9.582;2022-10-04T19:35:06;7.00;;;2.30;;
72621;SDS011;60665;53.506;9.582;2022-10-04T19:37:39;6.50;;;2.13;;
72621;SDS011;60665;53.506;9.582;2022-10-04T19:43:02;5.25;;;2.33;;
72621;SDS011;60665;53.506;9.582;2022-10-04T19:45:34;10.25;;;2.53;;
72621;SDS011;60665;53.506;9.582;2022-10-04T19:51:08;8.20;;;2.30;;
72621;SDS011;60665;53.506;9.582;2022-10-04T19:53:42;5.50;;;2.30;;
72621;SDS011;60665;53.506;9.582;2022-10-04T19:56:19;7.93;;;2.28;;
72621;SDS011;60665;53.506;9.582;2022-10-04T20:01:33;5.57;;;2.10;;
72621;SDS011;60665;53.506;9.582;2022-10-04T20:03:59;5.25;;;2.20;;
72621;SDS011;60665;53.506;9.582;2022-10-04T20:06:48;6.60;;;2.10;;
72621;SDS011;60665;53.506;9.582;2022-10-04T20:09:22;5.53;;;2.17;;
72621;SDS011;60665;53.506;9.582;2022-10-04T20:12:26;4.32;;;2.03;;
72621;SDS011;60665;53.506;9.582;2022-10-04T20:17:52;5.78;;;1.80;;
72621;SDS011;60665;53.506;9.582;2022-10-04T20:23:05;8.02;;;2.08;;
72621;SDS011;60665;53.506;9.582;2022-10-04T20:28:55;4.50;;;2.00;;
72621;SDS011;60665;53.506;9.582;2022-10-04T20:30:59;6.72;;;2.40;;
72621;SDS011;60665;53.506;9.582;2022-10-04T20:38:41;6.43;;;2.15;;
72621;SDS011;60665;53.506;9.582;2022-10-04T20:47:19;8.07;;;2.20;;
72621;SDS011;60665;53.506;9.582;2022-10-04T20:49:48;6.05;;;2.60;;
72621;SDS011;60665;53.506;9.582;2022-10-04T20:52:14;7.00;;;2.80;;
72621;SDS011;60665;53.506;9.582;2022-10-04T20:54:47;9.43;;;2.53;;
72621;SDS011;60665;53.506;9.582;2022-10-04T20:57:16;8.23;;;2.75;;
72621;SDS011;60665;53.506;9.582;2022-10-04T20:59:42;7.85;;;2.53;;
72621;SDS011;60665;53.506;9.582;2022-10-04T21:02:12;5.38;;;2.22;;
72621;SDS011;60665;53.506;9.582;2022-10-04T21:04:39;6.72;;;2.47;;
72621;SDS011;60665;53.506;9.582;2022-10-04T21:07:16;11.68;;;3.00;;
72621;SDS011;60665;53.506;9.582;2022-10-04T21:09:49;6.72;;;2.80;;
72621;SDS011;60665;53.506;9.582;2022-10-04T21:18:01;9.32;;;3.22;;
72621;SDS011;60665;53.506;9.582;2022-10-04T21:20:46;5.18;;;2.40;;
72621;SDS011;60665;53.506;9.582;2022-10-04T21:25:42;6.35;;;2.53;;
72621;SDS011;60665;53.506;9.582;2022-10-04T21:28:23;8.88;;;2.70;;
72621;SDS011;60665;53.506;9.582;2022-10-04T21:30:54;5.63;;;2.15;;
72621;SDS011;60665;53.506;9.582;2022-10-04T21:33:19;5.50;;;2.50;;
72621;SDS011;60665;53.506;9.582;2022-10-04T21:35:48;6.40;;;2.20;;
72621;SDS011;60665;53.506;9.582;2022-10-04T21:38:13;6.05;;;2.40;;
72621;SDS011;60665;53.506;9.582;2022-10-04T21:40:39;10.07;;;2.88;;
72621;SDS011;60665;53.506;9.582;2022-10-04T21:43:04;6.88;;;2.47;;
72621;SDS011;60665;53.506;9.582;2022-10-04T21:45:29;5.63;;;2.55;;
72621;SDS011;60665;53.506;9.582;2022-10-04T21:47:55;5.82;;;2.42;;
72621;SDS011;60665;53.506;9.582;2022-10-04T21:50:20;10.93;;;2.70;;
72621;SDS011;60665;53.506;9.582;2022-10-04T21:52:45;5.30;;;2.33;;
72621;SDS011;60665;53.506;9.582;2022-10-04T21:55:10;6.57;;;2.45;;
72621;SDS011;60665;53.506;9.582;2022-10-04T21:57:36;8.35;;;2.50;;
72621;SDS011;60665;53.506;9.582;2022-10-04T22:00:02;6.10;;;2.30;;
72621;SDS011;60665;53.506;9.582;2022-10-04T22:02:29;5.80;;;2.35;;
72621;SDS011;60665;53.506;9.582;2022-10-04T22:04:54;5.82;;;2.47;;
72621;SDS011;60665;53.506;9.582;2022-10-04T22:07:19;7.18;;;2.40;;
72621;SDS011;60665;53.506;9.582;2022-10-04T22:09:45;5.63;;;2.08;;
72621;SDS011;60665;53.506;9.582;2022-10-04T22:12:10;8.45;;;2.38;;
72621;SDS011;60665;53.506;9.582;2022-10-04T22:14:35;7.18;;;2.42;;
72621;SDS011;60665;53.506;9.582;2022-10-04T22:17:01;6.30;;;2.20;;
72621;SDS011;60665;53.506;9.582;2022-10-04T22:19:26;4.32;;;2.08;;
72621;SDS011;60665;53.506;9.582;2022-10-04T22:21:51;8.82;;;3.97;;
72621;SDS011;60665;53.506;9.582;2022-10-04T22:24:17;5.88;;;2.50;;
72621;SDS011;60665;53.506;9.582;2022-10-04T22:26:44;6.88;;;2.50;;
72621;SDS011;60665;53.506;9.582;2022-10-04T22:29:12;6.97;;;2.75;;
72621;SDS011;60665;53.506;9.582;2022-10-04T22:31:39;7.15;;;2.60;;
72621;SDS011;60665;53.506;9.582;2022-10-04T22:34:07;6.35;;;2.75;;
72621;SDS011;60665;53.506;9.582;2022-10-04T22:36:37;6.45;;;2.83;;
72621;SDS011;60665;53.506;9.582;2022-10-04T22:39:10;7.15;;;3.13;;
72621;SDS011;60665;53.506;9.582;2022-10-04T22:41:39;7.20;;;3.30;;
72621;SDS011;60665;53.506;9.582;2022-10-04T22:46:42;7.90;;;3.40;;
72621;SDS011;60665;53.506;9.582;2022-10-04T22:49:10;7.85;;;3.00;;
72621;SDS011;60665;53.506;9.582;2022-10-04T22:51:38;7.30;;;3.30;;
72621;SDS011;60665;53.506;9.582;2022-10-04T22:54:11;6.50;;;3.33;;
72621;SDS011;60665;53.506;9.582;2022-10-04T22:56:37;11.20;;;3.78;;
72621;SDS011;60665;53.506;9.582;2022-10-04T22:59:03;10.32;;;3.78;;
72621;SDS011;60665;53.506;9.582;2022-10-04T23:01:29;7.68;;;4.40;;
72621;SDS011;60665;53.506;9.582;2022-10-04T23:03:55;9.02;;;3.55;;
72621;SDS011;60665;53.506;9.582;2022-10-04T23:06:21;8.57;;;4.00;;
72621;SDS011;60665;53.506;9.582;2022-10-04T23:08:46;7.18;;;3.80;;
72621;SDS011;60665;53.506;9.582;2022-10-04T23:11:12;7.63;;;3.83;;
72621;SDS011;60665;53.506;9.582;2022-10-04T23:13:37;10.63;;;3.65;;
72621;SDS011;60665;53.506;9.582;2022-10-04T23:16:13;9.07;;;3.55;;
72621;SDS011;60665;53.506;9.582;2022-10-04T23:18:41;7.68;;;3.65;;
72621;SDS011;60665;53.506;9.582;2022-10-04T23:21:23;7.55;;;3.70;;
72621;SDS011;60665;53.506;9.582;2022-10-04T23:23:49;10.18;;;3.92;;
72621;SDS011;60665;53.506;9.582;2022-10-04T23:26:21;10.25;;;3.70;;
72621;SDS011;60665;53.506;9.582;2022-10-04T23:28:48;10.57;;;3.90;;
72621;SDS011;60665;53.506;9.582;2022-10-04T23:31:23;9.32;;;4.00;;
72621;SDS011;60665;53.506;9.582;2022-10-04T23:33:50;9.90;;;3.70;;
72621;SDS011;60665;53.506;9.582;2022-10-04T23:36:17;7.50;;;3.50;;
72621;SDS011;60665;53.506;9.582;2022-10-04T23:38:45;9.55;;;4.03;;
72621;SDS011;60665;53.506;9.582;2022-10-04T23:41:13;7.57;;;3.40;;
72621;SDS011;60665;53.506;9.582;2022-10-04T23:43:38;12.00;;;4.20;;
72621;SDS011;60665;53.506;9.582;2022-10-04T23:46:07;8.13;;;3.50;;
72621;SDS011;60665;53.506;9.582;2022-10-04T23:48:43;12.32;;;3.70;;
72621;SDS011;60665;53.506;9.582;2022-10-04T23:51:16;7.90;;;3.50;;
72621;SDS011;60665;53.506;9.582;2022-10-04T23:53:43;9.38;;;3.35;;
72621;SDS011;60665;53.506;9.582;2022-10-04T23:56:16;8.23;;;3.60;;
72621;SDS011;60665;53.506;9.582;2022-10-04T23:58:46;7.88;;;3.40;;
